Time;durP1;ratioP1;P1;durP2;ratioP2;P2;SDS_P1;SDS_P2;PMS_P1;PMS_P2;Temp;Humidity;BMP_temperature;BMP_pressure;BME280_temperature;BME280_humidity;BME280_pressure;Samples;Min_cycle;Max_cycle;Signal;HPM_P1;HPM_P2
2024/01/08 00:01:33;;;;;;;5.18;3.17;;;;;;;;;;4919299;29;20122;-73
2024/01/08 00:03:58;;;;;;;5.40;3.38;;;;;;;;;;4919318;29;20024;-73
2024/01/08 00:06:24;;;;;;;4.10;3.22;;;;;;;;;;4919214;29;20103;-73
2024/01/08 00:08:50;;;;;;;4.47;3.33;;;;;;;;;;4919281;29;20036;-73
2024/01/08 00:11:15;;;;;;;4.45;3.65;;;;;;;;;;4919588;29;20028;-73
2024/01/08 00:13:41;;;;;;;4.82;3.47;;;;;;;;;;4919417;29;20501;-72
2024/01/08 00:16:07;;;;;;;4.43;3.25;;;;;;;;;;4919134;29;20055;-73
2024/01/08 00:18:33;;;;;;;4.93;3.28;;;;;;;;;;4902436;29;20035;-73
2024/01/08 00:20:59;;;;;;;5.97;4.00;;;;;;;;;;4919402;29;20032;-74
2024/01/08 00:23:26;;;;;;;5.45;3.22;;;;;;;;;;4918964;29;20051;-74
2024/01/08 00:25:51;;;;;;;6.05;4.03;;;;;;;;;;4919238;29;20024;-73
2024/01/08 00:28:17;;;;;;;4.88;3.45;;;;;;;;;;4918874;29;20043;-74
2024/01/08 00:30:43;;;;;;;4.72;3.63;;;;;;;;;;4919103;29;20477;-73
2024/01/08 00:33:09;;;;;;;4.07;3.40;;;;;;;;;;4919066;29;20385;-73
2024/01/08 00:35:35;;;;;;;5.63;3.70;;;;;;;;;;4918943;29;20024;-74
2024/01/08 00:38:01;;;;;;;5.47;3.78;;;;;;;;;;4919259;29;20366;-73
2024/01/08 00:40:26;;;;;;;5.65;3.65;;;;;;;;;;4918794;29;20038;-73
2024/01/08 00:42:52;;;;;;;6.53;3.50;;;;;;;;;;4918788;29;20028;-73
2024/01/08 00:45:17;;;;;;;5.55;3.50;;;;;;;;;;4918809;29;20020;-74
2024/01/08 00:47:43;;;;;;;4.88;3.40;;;;;;;;;;4918535;29;20436;-75
2024/01/08 00:50:10;;;;;;;6.03;3.40;;;;;;;;;;4918644;29;20090;-73
2024/01/08 00:52:38;;;;;;;5.85;3.65;;;;;;;;;;4918489;29;20034;-74
2024/01/08 00:55:05;;;;;;;3.80;3.40;;;;;;;;;;4918586;29;20024;-75
2024/01/08 00:57:31;;;;;;;5.18;3.75;;;;;;;;;;4918421;29;20111;-74
2024/01/08 00:59:57;;;;;;;5.10;3.30;;;;;;;;;;4918279;29;20028;-75
2024/01/08 01:02:22;;;;;;;6.80;3.25;;;;;;;;;;4918464;29;20040;-74
2024/01/08 01:04:48;;;;;;;4.85;3.67;;;;;;;;;;4918331;29;20470;-76
2024/01/08 01:07:14;;;;;;;5.15;3.45;;;;;;;;;;4918514;29;20024;-76
2024/01/08 01:09:39;;;;;;;3.97;3.33;;;;;;;;;;4918749;29;20036;-75
2024/01/08 01:12:05;;;;;;;6.13;3.67;;;;;;;;;;4918111;29;20075;-74
2024/01/08 01:14:31;;;;;;;4.97;3.60;;;;;;;;;;4918120;29;20036;-74
2024/01/08 01:16:57;;;;;;;5.80;3.55;;;;;;;;;;4918099;29;20035;-75
2024/01/08 01:19:23;;;;;;;4.05;3.35;;;;;;;;;;4918175;29;20035;-73
2024/01/08 01:21:48;;;;;;;6.55;3.60;;;;;;;;;;4917811;29;20048;-75
2024/01/08 01:24:14;;;;;;;5.07;3.58;;;;;;;;;;4900869;29;20048;-73
2024/01/08 01:26:40;;;;;;;5.80;3.85;;;;;;;;;;4917939;29;20028;-73
2024/01/08 01:29:06;;;;;;;5.55;4.10;;;;;;;;;;4917916;29;20032;-73
2024/01/08 01:31:33;;;;;;;6.00;3.67;;;;;;;;;;4917926;29;20028;-75
2024/01/08 01:34:02;;;;;;;4.68;3.75;;;;;;;;;;4917406;29;20034;-74
2024/01/08 01:36:29;;;;;;;4.13;3.40;;;;;;;;;;4913007;29;20020;-74
2024/01/08 01:38:55;;;;;;;6.85;3.60;;;;;;;;;;4912459;29;20087;-73
2024/01/08 01:41:21;;;;;;;8.18;3.40;;;;;;;;;;4912754;29;20044;-73
2024/01/08 01:43:46;;;;;;;6.03;3.80;;;;;;;;;;4915349;29;20019;-73
2024/01/08 01:46:26;;;;;;;8.88;3.92;;;;;;;;;;4913435;29;20040;-72
2024/01/08 01:48:52;;;;;;;4.63;3.40;;;;;;;;;;4915788;29;20087;-74
2024/01/08 01:51:18;;;;;;;7.93;3.80;;;;;;;;;;4913773;29;20032;-74
2024/01/08 01:53:45;;;;;;;5.20;3.55;;;;;;;;;;4915269;29;20035;-74
2024/01/08 01:56:12;;;;;;;5.40;3.47;;;;;;;;;;4915036;29;20039;-73
2024/01/08 01:58:38;;;;;;;6.85;3.75;;;;;;;;;;4897011;29;20040;-74
2024/01/08 02:01:04;;;;;;;5.18;3.78;;;;;;;;;;4914644;29;20043;-75
2024/01/08 02:03:30;;;;;;;5.63;3.58;;;;;;;;;;4915681;29;20084;-74
2024/01/08 02:05:55;;;;;;;6.15;3.60;;;;;;;;;;4915923;29;20054;-74
2024/01/08 02:08:22;;;;;;;5.90;3.80;;;;;;;;;;4914488;29;20729;-74
2024/01/08 02:10:47;;;;;;;5.18;3.80;;;;;;;;;;4913801;29;20024;-76
2024/01/08 02:13:13;;;;;;;6.05;4.00;;;;;;;;;;4916431;29;20036;-75
2024/01/08 02:15:39;;;;;;;5.45;3.92;;;;;;;;;;4913174;29;20401;-74
2024/01/08 02:18:04;;;;;;;6.55;4.00;;;;;;;;;;4915472;29;20161;-74
2024/01/08 02:20:30;;;;;;;4.85;3.55;;;;;;;;;;4912440;29;20020;-75
2024/01/08 02:22:58;;;;;;;5.38;3.50;;;;;;;;;;4914848;29;20055;-72
2024/01/08 02:25:25;;;;;;;4.75;3.90;;;;;;;;;;4915464;29;20031;-72
2024/01/08 02:27:52;;;;;;;5.63;3.63;;;;;;;;;;4914452;29;20024;-73
2024/01/08 02:30:18;;;;;;;5.55;3.40;;;;;;;;;;4914426;29;20385;-72
2024/01/08 02:32:44;;;;;;;7.93;3.80;;;;;;;;;;4913809;29;20050;-71
2024/01/08 02:35:09;;;;;;;6.30;3.67;;;;;;;;;;4914221;29;20497;-72
2024/01/08 02:37:35;;;;;;;5.25;3.88;;;;;;;;;;4913536;29;20024;-72
2024/01/08 02:40:00;;;;;;;4.30;3.50;;;;;;;;;;4912053;29;20032;-72
2024/01/08 02:42:26;;;;;;;6.35;3.70;;;;;;;;;;4911198;29;20095;-71
2024/01/08 02:44:51;;;;;;;5.38;3.75;;;;;;;;;;4912085;29;20027;-72
2024/01/08 02:47:17;;;;;;;4.75;3.50;;;;;;;;;;4912071;29;20036;-73
2024/01/08 02:49:42;;;;;;;5.20;3.47;;;;;;;;;;4912046;29;20024;-72
2024/01/08 02:52:08;;;;;;;4.45;3.67;;;;;;;;;;4912016;29;20044;-74
2024/01/08 02:54:34;;;;;;;6.93;3.85;;;;;;;;;;4914980;29;20036;-74
2024/01/08 02:56:59;;;;;;;5.13;3.95;;;;;;;;;;4915902;29;20474;-75
2024/01/08 02:59:25;;;;;;;5.72;3.80;;;;;;;;;;4915701;29;20031;-74
2024/01/08 03:01:51;;;;;;;8.23;4.10;;;;;;;;;;4914947;29;20359;-75
2024/01/08 03:04:16;;;;;;;5.55;4.00;;;;;;;;;;4915919;29;20036;-74
2024/01/08 03:06:42;;;;;;;7.40;3.70;;;;;;;;;;4915767;29;20138;-75
2024/01/08 03:09:07;;;;;;;5.20;3.67;;;;;;;;;;4916359;29;20032;-74
2024/01/08 03:11:33;;;;;;;6.60;4.03;;;;;;;;;;4916281;29;20067;-74
2024/01/08 03:13:58;;;;;;;4.85;3.75;;;;;;;;;;4916618;29;20035;-74
2024/01/08 03:16:24;;;;;;;5.35;3.70;;;;;;;;;;4916256;29;20502;-73
2024/01/08 03:18:50;;;;;;;5.63;3.95;;;;;;;;;;4916489;29;20434;-73
2024/01/08 03:21:15;;;;;;;5.07;3.85;;;;;;;;;;4918179;29;20024;-74
2024/01/08 03:23:41;;;;;;;5.85;3.38;;;;;;;;;;4922490;29;20104;-74
2024/01/08 03:26:06;;;;;;;5.20;3.95;;;;;;;;;;4922577;29;20036;-73
2024/01/08 03:28:32;;;;;;;5.22;4.10;;;;;;;;;;4922512;29;20035;-73
2024/01/08 03:30:57;;;;;;;5.03;4.00;;;;;;;;;;4922753;29;20118;-74
2024/01/08 03:33:23;;;;;;;6.03;4.07;;;;;;;;;;4922547;29;20465;-74
2024/01/08 03:35:49;;;;;;;5.30;3.58;;;;;;;;;;4922402;29;20378;-74
2024/01/08 03:38:15;;;;;;;5.45;4.10;;;;;;;;;;4922365;29;20028;-74
2024/01/08 03:40:40;;;;;;;5.13;4.00;;;;;;;;;;4922443;29;20043;-74
2024/01/08 03:43:06;;;;;;;5.70;3.95;;;;;;;;;;4922395;29;20024;-72
2024/01/08 03:45:31;;;;;;;6.32;3.55;;;;;;;;;;4922589;29;20056;-74
2024/01/08 03:47:57;;;;;;;4.60;3.83;;;;;;;;;;4922539;29;20039;-74
2024/01/08 03:50:23;;;;;;;4.85;4.00;;;;;;;;;;4922281;29;20028;-74
2024/01/08 03:52:48;;;;;;;4.75;3.90;;;;;;;;;;4922618;29;20474;-74
2024/01/08 03:55:14;;;;;;;6.10;3.78;;;;;;;;;;4922258;29;20036;-74
2024/01/08 03:57:39;;;;;;;5.65;3.92;;;;;;;;;;4922272;29;20389;-74
2024/01/08 04:00:06;;;;;;;5.88;4.35;;;;;;;;;;4922455;29;20034;-74
2024/01/08 04:02:31;;;;;;;4.70;3.78;;;;;;;;;;4922226;29;20137;-74
2024/01/08 04:04:57;;;;;;;8.13;4.10;;;;;;;;;;4922491;29;20151;-74
2024/01/08 04:07:22;;;;;;;7.03;4.00;;;;;;;;;;4922174;29;20028;-73
2024/01/08 04:09:48;;;;;;;4.97;3.88;;;;;;;;;;4922187;29;20024;-74
2024/01/08 04:12:13;;;;;;;5.55;4.30;;;;;;;;;;4922410;29;20469;-74
2024/01/08 04:14:39;;;;;;;5.35;3.95;;;;;;;;;;4922372;29;20477;-75
2024/01/08 04:17:06;;;;;;;4.88;3.80;;;;;;;;;;4922118;29;20054;-74
2024/01/08 04:19:31;;;;;;;6.70;4.20;;;;;;;;;;4922340;29;20466;-74
2024/01/08 04:21:57;;;;;;;6.68;4.32;;;;;;;;;;4921867;29;20068;-74
2024/01/08 04:24:24;;;;;;;5.45;4.15;;;;;;;;;;4921995;29;20028;-74
2024/01/08 04:26:50;;;;;;;5.60;3.83;;;;;;;;;;4922201;29;20163;-74
2024/01/08 04:29:16;;;;;;;5.53;4.05;;;;;;;;;;4922231;29;20118;-74
2024/01/08 04:31:41;;;;;;;6.35;4.00;;;;;;;;;;4922104;29;20024;-74
2024/01/08 04:34:07;;;;;;;6.13;4.35;;;;;;;;;;4918745;29;20050;-74
2024/01/08 04:36:32;;;;;;;5.88;3.78;;;;;;;;;;4918959;29;20028;-74
2024/01/08 04:38:58;;;;;;;5.47;4.18;;;;;;;;;;4919354;29;20039;-74
2024/01/08 04:41:24;;;;;;;5.57;3.85;;;;;;;;;;4919298;29;20385;-74
2024/01/08 04:43:49;;;;;;;5.47;4.07;;;;;;;;;;4919151;29;20032;-73
2024/01/08 04:46:15;;;;;;;5.00;4.13;;;;;;;;;;4919000;29;20039;-73
2024/01/08 04:48:41;;;;;;;6.70;4.03;;;;;;;;;;4918633;29;20028;-73
2024/01/08 04:51:07;;;;;;;4.80;3.95;;;;;;;;;;4918623;29;20052;-74
2024/01/08 04:53:36;;;;;;;5.40;3.97;;;;;;;;;;4918683;29;20032;-74
2024/01/08 04:56:02;;;;;;;5.65;4.03;;;;;;;;;;4918653;29;20028;-74
2024/01/08 04:58:28;;;;;;;5.22;4.38;;;;;;;;;;4918602;29;20087;-74
2024/01/08 05:00:54;;;;;;;4.82;4.07;;;;;;;;;;4918840;29;20020;-74
2024/01/08 05:03:20;;;;;;;5.15;3.90;;;;;;;;;;4918491;29;20106;-74
2024/01/08 05:05:45;;;;;;;6.57;4.20;;;;;;;;;;4918471;29;20055;-76
2024/01/08 05:08:11;;;;;;;4.88;3.90;;;;;;;;;;4918325;29;20118;-76
2024/01/08 05:10:36;;;;;;;5.03;4.15;;;;;;;;;;4918392;29;20031;-76
2024/01/08 05:13:02;;;;;;;6.03;3.97;;;;;;;;;;4918324;29;20103;-75
2024/01/08 05:15:28;;;;;;;5.10;3.92;;;;;;;;;;4918275;29;20024;-75
2024/01/08 05:17:53;;;;;;;4.95;3.75;;;;;;;;;;4918489;29;20041;-76
2024/01/08 05:20:19;;;;;;;5.93;3.80;;;;;;;;;;4918135;29;20063;-76
2024/01/08 05:22:46;;;;;;;5.70;3.85;;;;;;;;;;4918008;29;20052;-76
2024/01/08 05:25:11;;;;;;;4.78;3.95;;;;;;;;;;4918060;29;20030;-76
2024/01/08 05:27:37;;;;;;;4.50;3.55;;;;;;;;;;4918211;29;20036;-76
2024/01/08 05:30:04;;;;;;;5.20;4.07;;;;;;;;;;4918307;29;20047;-76
2024/01/08 05:32:29;;;;;;;5.13;3.63;;;;;;;;;;4917951;29;20027;-76
2024/01/08 05:34:55;;;;;;;6.55;3.95;;;;;;;;;;4918206;29;20079;-76
2024/01/08 05:37:20;;;;;;;5.35;3.85;;;;;;;;;;4917886;29;20032;-75
2024/01/08 05:39:46;;;;;;;5.05;3.85;;;;;;;;;;4918121;29;20111;-76
2024/01/08 05:42:11;;;;;;;5.65;4.07;;;;;;;;;;4917881;29;20020;-75
2024/01/08 05:44:37;;;;;;;5.38;3.80;;;;;;;;;;4917860;29;20039;-75
2024/01/08 05:47:04;;;;;;;6.18;3.35;;;;;;;;;;4917601;29;20388;-75
2024/01/08 05:49:29;;;;;;;4.97;3.80;;;;;;;;;;4917672;29;20418;-73
2024/01/08 05:51:55;;;;;;;4.50;3.83;;;;;;;;;;4917839;29;20039;-75
2024/01/08 05:54:20;;;;;;;4.55;3.97;;;;;;;;;;4917857;29;20035;-74
2024/01/08 05:56:46;;;;;;;5.75;3.83;;;;;;;;;;4917779;29;20042;-75
2024/01/08 05:59:12;;;;;;;5.43;3.70;;;;;;;;;;4917507;29;20157;-74
2024/01/08 06:01:39;;;;;;;5.38;3.78;;;;;;;;;;4917682;29;20034;-74
2024/01/08 06:04:05;;;;;;;5.82;4.00;;;;;;;;;;4917435;29;20032;-72
2024/01/08 06:06:30;;;;;;;5.53;4.20;;;;;;;;;;4917455;29;20028;-74
2024/01/08 06:08:56;;;;;;;5.50;4.03;;;;;;;;;;4917277;29;20028;-74
2024/01/08 06:11:23;;;;;;;6.25;3.85;;;;;;;;;;4917482;29;20083;-74
2024/01/08 06:13:49;;;;;;;5.68;3.90;;;;;;;;;;4917217;29;20087;-74
2024/01/08 06:16:15;;;;;;;5.05;3.90;;;;;;;;;;4917393;29;20366;-74
2024/01/08 06:18:41;;;;;;;5.07;3.85;;;;;;;;;;4917394;29;20060;-73
2024/01/08 06:21:07;;;;;;;5.53;3.83;;;;;;;;;;4917161;29;20039;-74
2024/01/08 06:23:32;;;;;;;5.57;3.78;;;;;;;;;;4917078;29;20032;-73
2024/01/08 06:26:00;;;;;;;4.20;3.53;;;;;;;;;;4917009;29;20036;-74
2024/01/08 06:28:25;;;;;;;5.93;3.78;;;;;;;;;;4916955;29;20028;-74
2024/01/08 06:30:51;;;;;;;6.18;4.10;;;;;;;;;;4917160;29;20024;-74
2024/01/08 06:33:16;;;;;;;4.95;3.63;;;;;;;;;;4917223;29;20043;-74
2024/01/08 06:35:42;;;;;;;6.47;3.95;;;;;;;;;;4917178;29;20028;-74
2024/01/08 06:38:08;;;;;;;6.32;3.88;;;;;;;;;;4916899;29;20512;-74
2024/01/08 06:40:34;;;;;;;6.70;4.20;;;;;;;;;;4916757;29;20025;-74
2024/01/08 06:42:59;;;;;;;5.18;4.20;;;;;;;;;;4916697;29;20040;-74
2024/01/08 06:45:25;;;;;;;5.85;3.90;;;;;;;;;;4916714;29;20359;-74
2024/01/08 06:47:50;;;;;;;5.32;3.60;;;;;;;;;;4916577;29;20087;-75
2024/01/08 06:50:16;;;;;;;5.00;3.78;;;;;;;;;;4916611;29;20111;-74
2024/01/08 06:52:42;;;;;;;4.97;3.95;;;;;;;;;;4916870;29;20039;-74
2024/01/08 06:55:07;;;;;;;4.70;3.70;;;;;;;;;;4916550;29;20083;-74
2024/01/08 06:57:33;;;;;;;6.70;4.55;;;;;;;;;;4916261;29;20028;-75
2024/01/08 06:59:59;;;;;;;6.43;4.30;;;;;;;;;;4916550;29;20695;-74
2024/01/08 07:02:24;;;;;;;5.50;3.83;;;;;;;;;;4916496;29;20060;-74
2024/01/08 07:04:52;;;;;;;5.43;4.15;;;;;;;;;;4916424;29;20121;-74
2024/01/08 07:07:17;;;;;;;6.53;4.35;;;;;;;;;;4916355;29;20043;-74
2024/01/08 07:09:43;;;;;;;8.75;4.30;;;;;;;;;;4916668;29;20028;-74
2024/01/08 07:12:09;;;;;;;5.03;3.80;;;;;;;;;;4916456;29;20028;-73
2024/01/08 07:14:44;;;;;;;6.60;4.18;;;;;;;;;;4916629;29;20388;-73
2024/01/08 07:17:10;;;;;;;6.63;4.30;;;;;;;;;;4916383;29;20178;-73
2024/01/08 07:19:35;;;;;;;5.88;3.95;;;;;;;;;;4916239;29;20039;-74
2024/01/08 07:22:01;;;;;;;5.10;3.67;;;;;;;;;;4916114;29;20048;-74
2024/01/08 07:24:27;;;;;;;6.88;3.80;;;;;;;;;;4916212;29;20060;-74
2024/01/08 07:26:52;;;;;;;6.22;4.15;;;;;;;;;;4916172;29;20028;-74
2024/01/08 07:29:18;;;;;;;6.05;4.32;;;;;;;;;;4916251;29;20074;-74
2024/01/08 07:31:43;;;;;;;4.50;3.83;;;;;;;;;;4916397;29;20039;-74
2024/01/08 07:34:09;;;;;;;5.90;4.28;;;;;;;;;;4916148;29;20088;-75
2024/01/08 07:36:35;;;;;;;5.85;3.53;;;;;;;;;;4916499;29;20052;-75
2024/01/08 07:39:01;;;;;;;5.32;4.00;;;;;;;;;;4916047;29;20047;-75
2024/01/08 07:41:27;;;;;;;5.22;3.90;;;;;;;;;;4916066;29;20028;-74
2024/01/08 07:43:53;;;;;;;5.22;4.00;;;;;;;;;;4915959;29;20080;-75
2024/01/08 07:46:18;;;;;;;4.85;3.97;;;;;;;;;;4916117;29;20068;-74
2024/01/08 07:48:44;;;;;;;5.15;3.90;;;;;;;;;;4915955;29;20104;-75
2024/01/08 07:51:10;;;;;;;5.05;4.15;;;;;;;;;;4916269;29;20032;-75
2024/01/08 07:53:36;;;;;;;6.85;4.65;;;;;;;;;;4916039;29;20526;-77
2024/01/08 07:56:03;;;;;;;4.85;3.60;;;;;;;;;;4915920;29;20398;-74
2024/01/08 07:58:29;;;;;;;5.55;3.83;;;;;;;;;;4916195;29;20465;-73
2024/01/08 08:00:54;;;;;;;6.10;4.22;;;;;;;;;;4916100;29;20083;-74
2024/01/08 08:03:20;;;;;;;4.68;3.90;;;;;;;;;;4915912;29;20028;-73
2024/01/08 08:05:46;;;;;;;5.45;3.90;;;;;;;;;;4915959;29;20169;-73
2024/01/08 08:08:12;;;;;;;5.28;3.75;;;;;;;;;;4916729;29;20533;-74
2024/01/08 08:10:37;;;;;;;6.32;4.05;;;;;;;;;;4919663;29;20032;-74
2024/01/08 08:13:03;;;;;;;5.85;4.30;;;;;;;;;;4919351;29;20433;-74
2024/01/08 08:15:29;;;;;;;5.78;4.00;;;;;;;;;;4919330;29;20119;-74
2024/01/08 08:17:55;;;;;;;5.70;4.00;;;;;;;;;;4919586;29;20032;-74
2024/01/08 08:20:21;;;;;;;4.50;3.80;;;;;;;;;;4919555;29;20028;-75
2024/01/08 08:22:47;;;;;;;6.00;4.13;;;;;;;;;;4919015;29;20136;-75
2024/01/08 08:25:12;;;;;;;6.57;3.97;;;;;;;;;;4919201;29;20106;-75
2024/01/08 08:27:38;;;;;;;4.40;3.55;;;;;;;;;;4919373;29;20470;-75
2024/01/08 08:30:06;;;;;;;6.32;4.30;;;;;;;;;;4919374;29;20035;-75
2024/01/08 08:32:32;;;;;;;4.53;3.70;;;;;;;;;;4919272;29;20028;-74
2024/01/08 08:34:57;;;;;;;6.18;4.10;;;;;;;;;;4919011;29;20385;-75
2024/01/08 08:37:23;;;;;;;5.30;4.25;;;;;;;;;;4919008;29;20020;-73
2024/01/08 08:39:48;;;;;;;4.35;3.78;;;;;;;;;;4918932;29;20028;-74
2024/01/08 08:42:14;;;;;;;5.03;3.67;;;;;;;;;;4918893;29;20032;-75
2024/01/08 08:44:40;;;;;;;5.35;4.05;;;;;;;;;;4918898;29;20122;-74
2024/01/08 08:47:05;;;;;;;5.75;4.10;;;;;;;;;;4918773;29;20025;-74
2024/01/08 08:49:31;;;;;;;5.43;3.70;;;;;;;;;;4918810;29;20055;-74
2024/01/08 08:51:58;;;;;;;4.13;3.60;;;;;;;;;;4918752;29;20385;-76
2024/01/08 08:54:24;;;;;;;4.97;3.72;;;;;;;;;;4918863;29;20020;-74
2024/01/08 08:56:50;;;;;;;6.22;4.13;;;;;;;;;;4918621;29;20102;-75
2024/01/08 08:59:15;;;;;;;4.25;3.65;;;;;;;;;;4918918;29;20028;-75
2024/01/08 09:01:41;;;;;;;5.35;3.80;;;;;;;;;;4918460;29;20068;-75
2024/01/08 09:04:07;;;;;;;5.35;4.15;;;;;;;;;;4918486;29;20107;-75
2024/01/08 09:06:35;;;;;;;5.65;3.80;;;;;;;;;;4918325;29;20021;-75
2024/01/08 09:09:02;;;;;;;5.15;4.20;;;;;;;;;;4918342;29;20068;-75
2024/01/08 09:11:28;;;;;;;5.95;3.97;;;;;;;;;;4918380;29;20071;-75
2024/01/08 09:13:53;;;;;;;4.18;3.58;;;;;;;;;;4918360;29;20036;-75
2024/01/08 09:16:20;;;;;;;5.32;4.38;;;;;;;;;;4918344;29;20216;-74
2024/01/08 09:18:46;;;;;;;5.22;3.72;;;;;;;;;;4918032;29;20119;-74
2024/01/08 09:21:13;;;;;;;5.25;3.95;;;;;;;;;;4918024;29;20434;-74
2024/01/08 09:23:41;;;;;;;4.65;3.95;;;;;;;;;;4918477;29;20484;-74
2024/01/08 09:26:07;;;;;;;5.20;3.63;;;;;;;;;;4918063;29;20032;-75
2024/01/08 09:28:33;;;;;;;6.80;4.10;;;;;;;;;;4917953;29;20035;-75
2024/01/08 09:31:00;;;;;;;4.60;3.85;;;;;;;;;;4917970;29;20083;-75
2024/01/08 09:33:26;;;;;;;4.20;3.80;;;;;;;;;;4917870;29;20107;-73
2024/01/08 09:35:51;;;;;;;7.05;3.80;;;;;;;;;;4900973;29;20115;-74
2024/01/08 09:38:17;;;;;;;5.03;3.83;;;;;;;;;;4917953;29;20046;-74
2024/01/08 09:40:43;;;;;;;5.15;3.80;;;;;;;;;;4917863;29;20051;-74
2024/01/08 09:43:12;;;;;;;4.68;4.13;;;;;;;;;;4917835;29;20093;-74
2024/01/08 09:45:59;;;;;;;5.60;3.97;;;;;;;;;;4917659;29;20063;-74
2024/01/08 09:48:25;;;;;;;5.72;4.13;;;;;;;;;;4917616;29;20042;-74
2024/01/08 09:50:51;;;;;;;5.10;4.10;;;;;;;;;;4917643;29;20028;-74
2024/01/08 09:53:17;;;;;;;5.07;3.60;;;;;;;;;;4917842;29;20040;-73
2024/01/08 09:55:44;;;;;;;4.50;3.80;;;;;;;;;;4917600;29;20571;-74
2024/01/08 09:58:10;;;;;;;4.38;3.85;;;;;;;;;;4917495;29;20036;-73
2024/01/08 10:00:36;;;;;;;6.15;3.70;;;;;;;;;;4917749;29;20036;-74
2024/01/08 10:03:01;;;;;;;5.53;4.32;;;;;;;;;;4917463;29;20450;-74
2024/01/08 10:05:28;;;;;;;4.75;4.10;;;;;;;;;;4917327;29;20095;-74
2024/01/08 10:07:54;;;;;;;4.55;3.85;;;;;;;;;;4917257;29;20039;-73
2024/01/08 10:10:20;;;;;;;4.35;3.85;;;;;;;;;;4917242;29;20036;-74
2024/01/08 10:12:49;;;;;;;5.03;3.88;;;;;;;;;;4917327;29;20532;-74
2024/01/08 10:15:18;;;;;;;5.57;4.13;;;;;;;;;;4917537;29;20063;-74
2024/01/08 10:17:48;;;;;;;4.90;3.85;;;;;;;;;;4917215;29;20035;-74
2024/01/08 10:20:15;;;;;;;6.40;4.50;;;;;;;;;;4917131;29;20529;-74
2024/01/08 10:22:41;;;;;;;4.82;3.80;;;;;;;;;;4916916;29;20532;-74
2024/01/08 10:25:07;;;;;;;5.13;4.05;;;;;;;;;;4917301;29;20043;-73
2024/01/08 10:27:36;;;;;;;6.30;4.22;;;;;;;;;;4916994;29;20028;-74
2024/01/08 10:30:05;;;;;;;4.40;3.40;;;;;;;;;;4916874;29;20028;-74
2024/01/08 10:32:31;;;;;;;5.30;3.80;;;;;;;;;;4916367;29;20541;-74
2024/01/08 10:34:57;;;;;;;4.93;3.92;;;;;;;;;;4917127;29;20024;-74
2024/01/08 10:37:22;;;;;;;6.13;4.18;;;;;;;;;;4916869;29;20499;-73
2024/01/08 10:39:48;;;;;;;4.82;4.10;;;;;;;;;;4916765;29;20036;-74
2024/01/08 10:42:14;;;;;;;4.97;3.90;;;;;;;;;;4917005;29;20107;-74
2024/01/08 10:44:40;;;;;;;6.38;4.20;;;;;;;;;;4899724;29;20392;-73
2024/01/08 10:47:22;;;;;;;6.35;4.35;;;;;;;;;;4916651;29;20082;-73
2024/01/08 10:49:55;;;;;;;4.57;3.78;;;;;;;;;;4916740;29;20028;-73
2024/01/08 10:52:32;;;;;;;4.72;4.20;;;;;;;;;;4916669;29;20032;-73
2024/01/08 10:54:59;;;;;;;8.63;4.70;;;;;;;;;;4916625;29;20024;-72
2024/01/08 10:57:36;;;;;;;4.72;3.75;;;;;;;;;;4910914;29;20036;-73
2024/01/08 11:00:08;;;;;;;5.82;3.90;;;;;;;;;;4911798;29;20032;-73
2024/01/08 11:02:37;;;;;;;6.15;4.10;;;;;;;;;;4910212;29;20159;-73
2024/01/08 11:05:05;;;;;;;4.68;3.92;;;;;;;;;;4894353;29;20098;-73
2024/01/08 11:07:36;;;;;;;5.57;4.43;;;;;;;;;;4907595;29;20381;-74
2024/01/08 11:10:09;;;;;;;5.63;4.13;;;;;;;;;;4910660;29;20056;-73
2024/01/08 11:12:55;;;;;;;5.53;3.70;;;;;;;;;;4911211;29;20028;-74
2024/01/08 11:15:28;;;;;;;5.10;4.20;;;;;;;;;;4911394;29;20052;-73
2024/01/08 11:17:57;;;;;;;7.70;4.60;;;;;;;;;;4910277;29;20035;-72
2024/01/08 11:20:44;;;;;;;4.50;3.70;;;;;;;;;;4909188;29;20028;-73
2024/01/08 11:23:37;;;;;;;4.55;3.67;;;;;;;;;;4910421;29;20091;-72
2024/01/08 11:26:19;;;;;;;5.95;4.28;;;;;;;;;;4909441;29;20036;-73
2024/01/08 11:29:03;;;;;;;4.68;3.75;;;;;;;;;;4907182;29;20557;-72
2024/01/08 11:31:49;;;;;;;6.82;4.18;;;;;;;;;;4910175;29;20052;-72
2024/01/08 11:34:51;;;;;;;5.43;4.20;;;;;;;;;;4910984;29;20075;-72
2024/01/08 11:37:36;;;;;;;5.68;4.30;;;;;;;;;;4911795;29;20485;-72
2024/01/08 11:40:15;;;;;;;5.65;4.03;;;;;;;;;;4913973;29;20028;-72
2024/01/08 11:42:52;;;;;;;5.23;3.90;;;;;;;;;;4917644;29;20039;-71
2024/01/08 11:45:19;;;;;;;5.68;4.03;;;;;;;;;;4919921;29;20263;-71
2024/01/08 11:47:45;;;;;;;5.55;4.10;;;;;;;;;;4920050;29;20139;-72
2024/01/08 11:50:11;;;;;;;5.53;3.70;;;;;;;;;;4919857;29;20028;-72
2024/01/08 11:52:39;;;;;;;5.72;4.10;;;;;;;;;;4918458;29;20500;-74
2024/01/08 11:55:06;;;;;;;5.63;4.20;;;;;;;;;;4917877;29;20039;-71
2024/01/08 11:57:33;;;;;;;5.15;3.72;;;;;;;;;;4906222;29;20060;-73
2024/01/08 11:59:59;;;;;;;6.38;4.20;;;;;;;;;;4901259;29;20036;-65
2024/01/08 12:02:28;;;;;;;5.05;4.00;;;;;;;;;;4915146;29;20027;-67
2024/01/08 12:04:58;;;;;;;4.80;4.00;;;;;;;;;;4917879;29;20031;-67
2024/01/08 12:07:26;;;;;;;4.40;3.60;;;;;;;;;;4919410;29;20469;-69
2024/01/08 12:09:51;;;;;;;8.43;3.90;;;;;;;;;;4919315;29;20107;-67
2024/01/08 12:12:18;;;;;;;5.18;3.95;;;;;;;;;;4919571;29;20103;-72
2024/01/08 12:14:48;;;;;;;14.73;4.00;;;;;;;;;;4914882;29;20024;-73
2024/01/08 12:17:15;;;;;;;14.35;4.30;;;;;;;;;;4914073;29;20032;-73
2024/01/08 12:19:49;;;;;;;7.47;4.13;;;;;;;;;;4900642;29;20366;-70
2024/01/08 12:22:17;;;;;;;5.32;3.70;;;;;;;;;;4900375;29;20045;-73
2024/01/08 12:24:47;;;;;;;7.22;4.05;;;;;;;;;;4900187;29;20032;-73
2024/01/08 12:27:18;;;;;;;4.72;3.83;;;;;;;;;;4900306;29;20025;-75
2024/01/08 12:29:45;;;;;;;7.63;3.90;;;;;;;;;;4900186;29;20036;-75
2024/01/08 12:32:13;;;;;;;12.02;4.53;;;;;;;;;;4900233;29;20040;-75
2024/01/08 12:34:42;;;;;;;6.53;4.03;;;;;;;;;;4900363;29;20548;-75
2024/01/08 12:37:09;;;;;;;5.25;3.90;;;;;;;;;;4919192;29;20035;-73
2024/01/08 12:39:35;;;;;;;6.75;4.20;;;;;;;;;;4918892;29;20028;-73
2024/01/08 12:42:04;;;;;;;7.10;4.13;;;;;;;;;;4918949;29;20036;-73
2024/01/08 12:44:32;;;;;;;7.03;3.92;;;;;;;;;;4918855;29;20036;-73
2024/01/08 12:46:58;;;;;;;6.90;4.03;;;;;;;;;;4918770;29;20036;-74
2024/01/08 12:49:24;;;;;;;5.53;3.97;;;;;;;;;;4918849;29;20059;-73
2024/01/08 12:51:54;;;;;;;5.53;3.65;;;;;;;;;;4918914;29;20036;-72
2024/01/08 12:54:20;;;;;;;6.55;4.00;;;;;;;;;;4917897;29;20039;-73
2024/01/08 12:56:46;;;;;;;7.90;3.90;;;;;;;;;;4918881;29;20032;-74
2024/01/08 12:59:13;;;;;;;7.40;3.90;;;;;;;;;;4918857;29;20032;-74
2024/01/08 13:01:40;;;;;;;4.78;3.80;;;;;;;;;;4918841;29;20421;-73
2024/01/08 13:04:07;;;;;;;6.93;4.20;;;;;;;;;;4918595;29;20024;-74
2024/01/08 13:06:33;;;;;;;6.30;3.60;;;;;;;;;;4903803;29;20040;-73
2024/01/08 13:08:59;;;;;;;11.20;4.07;;;;;;;;;;4899416;29;20040;-73
2024/01/08 13:11:25;;;;;;;6.10;4.05;;;;;;;;;;4899407;29;20029;-72
2024/01/08 13:13:51;;;;;;;7.32;3.80;;;;;;;;;;4899471;29;20059;-73
2024/01/08 13:16:17;;;;;;;5.47;3.88;;;;;;;;;;4899390;29;20040;-72
2024/01/08 13:18:43;;;;;;;30.63;5.65;;;;;;;;;;4901727;29;20037;-72
2024/01/08 13:21:08;;;;;;;8.80;4.43;;;;;;;;;;4917999;29;20036;-73
2024/01/08 13:23:37;;;;;;;8.45;3.95;;;;;;;;;;4913941;29;20084;-72
2024/01/08 13:26:04;;;;;;;9.50;4.07;;;;;;;;;;4917890;29;20031;-73
2024/01/08 13:28:29;;;;;;;7.68;4.03;;;;;;;;;;4910387;29;20067;-73
2024/01/08 13:30:56;;;;;;;5.55;4.05;;;;;;;;;;4899430;29;20445;-73
2024/01/08 13:33:24;;;;;;;5.35;3.67;;;;;;;;;;4899029;29;20112;-73
2024/01/08 13:35:49;;;;;;;5.40;3.63;;;;;;;;;;4899001;29;20114;-72
2024/01/08 13:38:15;;;;;;;10.90;3.88;;;;;;;;;;4899265;29;20040;-74
2024/01/08 13:40:40;;;;;;;6.72;4.30;;;;;;;;;;4897678;29;20028;-74
2024/01/08 13:43:09;;;;;;;8.90;4.40;;;;;;;;;;4898893;29;20068;-73
2024/01/08 13:45:34;;;;;;;7.72;4.20;;;;;;;;;;4898933;29;20128;-73
2024/01/08 13:48:00;;;;;;;8.23;3.65;;;;;;;;;;4898731;29;20545;-73
2024/01/08 13:50:28;;;;;;;6.13;4.13;;;;;;;;;;4904530;29;20056;-74
2024/01/08 13:52:54;;;;;;;5.22;3.92;;;;;;;;;;4917020;29;20106;-75
2024/01/08 13:55:20;;;;;;;5.60;4.32;;;;;;;;;;4917495;29;20063;-73
2024/01/08 13:57:45;;;;;;;5.43;4.22;;;;;;;;;;4917525;29;20030;-73
2024/01/08 14:00:12;;;;;;;6.72;3.90;;;;;;;;;;4917750;29;20116;-73
2024/01/08 14:02:38;;;;;;;7.43;5.20;;;;;;;;;;4917392;29;20055;-74
2024/01/08 14:05:04;;;;;;;9.38;4.60;;;;;;;;;;4915693;29;20060;-73
2024/01/08 14:07:30;;;;;;;10.90;5.00;;;;;;;;;;4914977;29;20036;-74
2024/01/08 14:09:56;;;;;;;9.68;4.97;;;;;;;;;;4916094;29;20088;-73
2024/01/08 14:12:22;;;;;;;7.45;4.85;;;;;;;;;;4915873;29;20024;-74
2024/01/08 14:14:48;;;;;;;6.43;4.88;;;;;;;;;;4914503;29;20048;-75
2024/01/08 14:17:14;;;;;;;8.05;4.32;;;;;;;;;;4901436;29;20079;-74
2024/01/08 14:19:39;;;;;;;6.85;4.80;;;;;;;;;;4896746;29;20137;-74
2024/01/08 14:22:05;;;;;;;7.10;4.82;;;;;;;;;;4896598;29;20131;-75
2024/01/08 14:24:30;;;;;;;6.95;4.53;;;;;;;;;;4896605;29;20070;-74
2024/01/08 14:26:57;;;;;;;10.55;5.40;;;;;;;;;;4896856;29;20036;-74
2024/01/08 14:29:23;;;;;;;6.55;5.10;;;;;;;;;;4895850;29;20032;-74
2024/01/08 14:31:49;;;;;;;9.30;4.47;;;;;;;;;;4896114;29;20031;-74
2024/01/08 14:34:16;;;;;;;8.15;4.85;;;;;;;;;;4895698;29;20028;-73
2024/01/08 14:36:42;;;;;;;8.43;4.97;;;;;;;;;;4896350;29;20704;-73
2024/01/08 14:39:08;;;;;;;10.63;5.30;;;;;;;;;;4901954;29;20096;-75
2024/01/08 14:41:33;;;;;;;10.57;4.95;;;;;;;;;;4915070;29;20040;-73